createdAt,value
2022-10-28T00:02:43.196Z,98314.56
2022-10-28T00:05:45.013Z,98305.03
2022-10-28T00:08:46.525Z,98308.03
2022-10-28T00:11:47.998Z,98308.22
2022-10-28T00:14:49.496Z,98302.09
2022-10-28T00:17:51.179Z,98307.91
2022-10-28T00:20:52.857Z,98301.19
2022-10-28T00:23:54.616Z,98321.47
2022-10-28T00:26:56.122Z,98306.78
2022-10-28T00:29:57.608Z,98305.53
2022-10-28T00:32:59.117Z,98313.25
2022-10-28T00:36:07.582Z,98305.84
2022-10-28T00:39:15.222Z,98304.88
2022-10-28T00:42:18.430Z,98296.97
2022-10-28T00:45:19.936Z,98315.41
2022-10-28T00:48:21.423Z,98299.78
2022-10-28T00:51:23.140Z,98303.06
2022-10-28T00:54:24.653Z,98297.84
2022-10-28T00:57:27.734Z,98299.06
2022-10-28T01:00:29.310Z,98308.19
2022-10-28T01:03:30.881Z,98308.56
2022-10-28T01:06:32.378Z,98305.28
2022-10-28T01:09:33.890Z,98304.50
2022-10-28T01:12:37.517Z,98294.09
2022-10-28T01:15:48.392Z,98281.03
2022-10-28T01:18:56.918Z,98282.78
2022-10-28T01:21:58.482Z,98287.22
2022-10-28T01:24:59.989Z,98283.25
2022-10-28T01:28:34.099Z,98275.09
2022-10-28T01:31:41.952Z,98269.28
2022-10-28T01:35:03.751Z,98268.34
2022-10-28T01:38:14.447Z,98264.44
2022-10-28T01:41:33.831Z,98255.78
2022-10-28T01:44:44.030Z,98255.53
2022-10-28T01:47:47.738Z,98254.31
2022-10-28T01:51:04.574Z,98254.47
2022-10-28T01:54:06.576Z,98246.38
2022-10-28T01:57:08.056Z,98230.00
2022-10-28T02:00:09.861Z,98228.09
2022-10-28T02:03:14.271Z,98225.28
2022-10-28T02:06:16.755Z,98210.78
2022-10-28T02:09:20.710Z,98219.94
2022-10-28T02:12:35.161Z,98222.31
2022-10-28T02:15:36.635Z,98218.88
2022-10-28T02:18:49.166Z,98221.22
2022-10-28T02:22:09.078Z,98218.69
2022-10-28T02:25:15.328Z,98224.81
2022-10-28T02:28:18.346Z,98208.41
2022-10-28T02:31:24.545Z,98197.25
2022-10-28T02:34:27.490Z,98195.97
2022-10-28T02:37:30.270Z,98189.84
2022-10-28T02:40:31.773Z,98181.34
2022-10-28T02:43:33.695Z,98164.97
2022-10-28T02:46:35.414Z,98156.47
2022-10-28T02:49:37.516Z,98153.41
2022-10-28T02:52:39.050Z,98139.09
2022-10-28T02:55:41.953Z,98150.44
2022-10-28T02:58:43.465Z,98141.44
2022-10-28T03:01:45.133Z,98139.56
2022-10-28T03:04:46.757Z,98147.25
2022-10-28T03:07:48.302Z,98150.88
2022-10-28T03:10:49.823Z,98143.94
2022-10-28T03:13:51.344Z,98145.34
2022-10-28T03:16:52.858Z,98127.13
2022-10-28T03:19:54.438Z,98093.44
2022-10-28T03:22:56.259Z,98103.53
2022-10-28T03:25:58.088Z,98107.78
2022-10-28T03:28:59.644Z,98111.41
2022-10-28T03:32:01.258Z,98093.16
2022-10-28T03:35:02.780Z,98097.13
2022-10-28T03:38:04.380Z,98106.38
2022-10-28T03:41:05.973Z,98106.06
2022-10-28T03:44:07.527Z,98079.81
2022-10-28T03:47:09.189Z,98089.25
2022-10-28T03:50:10.846Z,98099.94
2022-10-28T03:53:12.377Z,98099.16
2022-10-28T03:56:13.900Z,98086.88
2022-10-28T03:59:19.203Z,98083.44
2022-10-28T04:02:21.909Z,98060.16
2022-10-28T04:05:23.473Z,98061.25
2022-10-28T04:08:24.991Z,98078.88
2022-10-28T04:11:26.508Z,98063.59
2022-10-28T04:14:28.004Z,98060.94
2022-10-28T04:17:29.612Z,98058.25
2022-10-28T04:20:31.231Z,98027.28
2022-10-28T04:23:32.720Z,98036.88
2022-10-28T04:26:34.214Z,98025.38
2022-10-28T04:29:36.186Z,98016.59
2022-10-28T04:32:37.735Z,98019.25
2022-10-28T04:35:42.743Z,98034.81
2022-10-28T04:38:44.567Z,98039.38
2022-10-28T04:41:46.121Z,98040.47
2022-10-28T04:44:47.608Z,98049.28
2022-10-28T04:47:49.088Z,98021.59
2022-10-28T04:50:51.030Z,98036.06
2022-10-28T04:53:52.551Z,98025.38
2022-10-28T04:56:54.395Z,98016.59
2022-10-28T04:59:55.897Z,98016.75
2022-10-28T05:02:57.884Z,98014.38
2022-10-28T05:05:59.682Z,98006.06
2022-10-28T05:09:01.176Z,97993.47
2022-10-28T05:12:02.721Z,97980.88
2022-10-28T05:15:04.403Z,97971.75
2022-10-28T05:18:05.973Z,97976.00
2022-10-28T05:21:07.539Z,97968.78
2022-10-28T05:24:09.088Z,97973.47
2022-10-28T05:27:10.646Z,97971.59
2022-10-28T05:30:12.651Z,97965.94
2022-10-28T05:33:14.183Z,97967.84
2022-10-28T05:36:15.681Z,97967.84
2022-10-28T05:39:17.777Z,97978.19
2022-10-28T05:42:19.292Z,97967.84
2022-10-28T05:45:20.901Z,97952.25
2022-10-28T05:48:22.499Z,97947.38
2022-10-28T05:51:24.048Z,97948.19
2022-10-28T05:54:25.638Z,97938.28
2022-10-28T05:57:27.138Z,97934.81
2022-10-28T06:00:28.993Z,97926.00
2022-10-28T06:03:31.371Z,97927.59
2022-10-28T06:06:33.088Z,97924.59
2022-10-28T06:09:34.676Z,97919.25
2022-10-28T06:12:34.820Z,97914.38
2022-10-28T06:15:36.383Z,97912.16
2022-10-28T06:18:37.924Z,97910.75
2022-10-28T06:21:39.647Z,97918.75
2022-10-28T06:24:41.188Z,97917.19
2022-10-28T06:27:42.843Z,97907.59
2022-10-28T06:30:44.393Z,97910.75
2022-10-28T06:33:45.978Z,97908.53
2022-10-28T06:36:47.512Z,97896.25
2022-10-28T06:39:51.519Z,97888.72
2022-10-28T06:42:59.084Z,97885.72
2022-10-28T06:46:04.401Z,97893.41
2022-10-28T06:49:09.153Z,97883.81
2022-10-28T06:52:10.727Z,97875.03
2022-10-28T06:55:12.294Z,97885.38
2022-10-28T06:58:13.858Z,97925.50
2022-10-28T07:01:15.437Z,97912.63
2022-10-28T07:04:17.044Z,97925.22
2022-10-28T07:07:19.632Z,97925.66
2022-10-28T07:10:21.206Z,97912.00
2022-10-28T07:13:23.131Z,97904.25
2022-10-28T07:16:24.735Z,97895.94
2022-10-28T07:19:26.246Z,97887.59
2022-10-28T07:22:27.816Z,97884.28
2022-10-28T07:25:30.499Z,97879.38
2022-10-28T07:28:32.065Z,97867.56
2022-10-28T07:31:33.616Z,97872.63
2022-10-28T07:34:35.167Z,97860.81
2022-10-28T07:37:38.248Z,97844.75
2022-10-28T07:40:39.890Z,97845.19
2022-10-28T07:43:41.440Z,97849.13
2022-10-28T07:46:43.041Z,97850.41
2022-10-28T07:49:44.574Z,97848.94
2022-10-28T07:52:46.250Z,97836.34
2022-10-28T07:55:57.533Z,97831.00
2022-10-28T07:59:00.123Z,97835.72
2022-10-28T08:02:01.694Z,97826.91
2022-10-28T08:05:03.524Z,97832.75
2022-10-28T08:08:05.148Z,97843.13
2022-10-28T08:11:13.392Z,97836.66
2022-10-28T08:14:14.936Z,97840.44
2022-10-28T08:17:16.798Z,97851.16
2022-10-28T08:20:18.561Z,97872.56
2022-10-28T08:23:20.140Z,97881.03
2022-10-28T08:26:21.868Z,97878.34
2022-10-28T08:29:28.994Z,97878.34
2022-10-28T08:32:31.601Z,97890.00
2022-10-28T08:35:35.713Z,97884.34
2022-10-28T08:38:40.518Z,97886.53
2022-10-28T08:41:45.283Z,97882.88
2022-10-28T08:44:54.017Z,97887.94
2022-10-28T08:51:09.567Z,97883.19
2022-10-28T08:54:13.529Z,97883.97
2022-10-28T08:57:18.061Z,97877.97
2022-10-28T09:00:23.898Z,97882.34
2022-10-28T09:03:26.193Z,97893.53
2022-10-28T09:06:27.743Z,97888.97
2022-10-28T09:09:29.297Z,97880.59
2022-10-28T09:12:46.341Z,97878.66
2022-10-28T09:16:00.157Z,97891.38
2022-10-28T09:19:24.972Z,97889.28
2022-10-28T09:22:32.595Z,97897.16
2022-10-28T09:25:53.822Z,97917.25
2022-10-28T09:28:59.181Z,97926.03
2022-10-28T09:32:26.632Z,97947.53
2022-10-28T09:35:28.694Z,97958.94
2022-10-28T09:38:31.830Z,97952.81
2022-10-28T09:41:39.263Z,97963.75
2022-10-28T09:44:40.883Z,97959.09
2022-10-28T09:47:43.898Z,97973.75
2022-10-28T09:50:45.436Z,97967.94
2022-10-28T09:53:47.024Z,97996.63
2022-10-28T09:56:48.579Z,97999.06
2022-10-28T09:59:50.838Z,97999.19
2022-10-28T10:02:53.611Z,98045.47
2022-10-28T10:05:56.303Z,98051.84
2022-10-28T10:08:57.911Z,98043.44
2022-10-28T10:12:10.013Z,98050.41
2022-10-28T10:15:14.292Z,98041.13
2022-10-28T10:18:16.711Z,98066.50
2022-10-28T10:21:21.186Z,98065.22
2022-10-28T10:24:25.925Z,98050.59
2022-10-28T10:27:27.725Z,98074.22
2022-10-28T10:30:32.254Z,98104.25
2022-10-28T10:33:36.020Z,98105.84
2022-10-28T10:36:37.802Z,98111.34
2022-10-28T10:39:39.929Z,98158.22
2022-10-28T10:42:51.670Z,98122.38
2022-10-28T10:46:03.308Z,98136.38
2022-10-28T10:49:14.183Z,98160.00
2022-10-28T10:52:17.689Z,98139.38
2022-10-28T10:55:21.370Z,98156.03
2022-10-28T10:58:27.089Z,98124.16
2022-10-28T11:01:29.482Z,98125.31
2022-10-28T11:04:31.131Z,98133.44
2022-10-28T11:07:32.920Z,98144.84
2022-10-28T11:10:35.334Z,98163.16
2022-10-28T11:13:36.882Z,98181.72
2022-10-28T11:16:47.397Z,98176.19
2022-10-28T11:19:49.017Z,98177.25
2022-10-28T11:22:57.370Z,98186.72
2022-10-28T11:26:00.165Z,98186.03
2022-10-28T11:29:11.787Z,98188.19
2022-10-28T11:32:33.565Z,98175.66
2022-10-28T11:35:43.639Z,98183.91
2022-10-28T11:38:52.451Z,98208.09
2022-10-28T11:41:54.068Z,98216.81
2022-10-28T11:44:58.959Z,98237.75
2022-10-28T11:48:23.943Z,98232.19
2022-10-28T11:51:54.869Z,98219.09
2022-10-28T11:55:25.904Z,98233.41
2022-10-28T11:58:27.464Z,98245.94
2022-10-28T12:01:40.090Z,98249.84
2022-10-28T12:04:49.871Z,98249.41
2022-10-28T12:08:01.129Z,98265.75
2022-10-28T12:11:12.113Z,98256.56
2022-10-28T12:14:16.976Z,98247.88
2022-10-28T12:17:18.495Z,98288.06
2022-10-28T12:20:30.934Z,98280.94
2022-10-28T12:23:33.509Z,98265.72
2022-10-28T12:26:42.472Z,98260.28
2022-10-28T12:29:44.436Z,98248.94
2022-10-28T12:32:45.984Z,98276.25
2022-10-28T12:35:48.926Z,98290.81
2022-10-28T12:38:56.725Z,98282.91
2022-10-28T12:42:19.342Z,98300.38
2022-10-28T12:45:20.895Z,98335.09
2022-10-28T12:48:26.726Z,98311.88
2022-10-28T12:51:33.309Z,98299.47
2022-10-28T12:54:37.945Z,98305.38
2022-10-28T12:57:46.177Z,98282.16
2022-10-28T13:00:49.387Z,98298.47
2022-10-28T13:03:51.401Z,98314.63
2022-10-28T13:07:11.599Z,98328.63
2022-10-28T13:13:37.006Z,98354.91
2022-10-28T13:16:53.758Z,98338.66
2022-10-28T13:19:55.261Z,98385.59
2022-10-28T13:23:06.060Z,98357.72
2022-10-28T13:26:26.280Z,98381.09
2022-10-28T13:29:29.068Z,98382.13
2022-10-28T13:32:38.840Z,98339.59
2022-10-28T13:35:40.779Z,98393.50
2022-10-28T13:38:42.338Z,98338.59
2022-10-28T13:41:47.928Z,98340.44
2022-10-28T13:44:51.779Z,98343.13
2022-10-28T13:47:53.320Z,98346.84
2022-10-28T13:51:10.063Z,98351.66
2022-10-28T13:54:23.472Z,98319.19
2022-10-28T13:57:26.412Z,98319.63
2022-10-28T14:03:34.773Z,98361.69
2022-10-28T14:06:36.424Z,98367.59
2022-10-28T14:09:38.336Z,98357.41
2022-10-28T14:12:40.795Z,98352.13
2022-10-28T14:15:42.351Z,98378.34
2022-10-28T14:18:51.473Z,98363.84
2022-10-28T14:22:03.330Z,98377.38
2022-10-28T14:25:25.587Z,98402.25
2022-10-28T14:28:27.273Z,98386.19
2022-10-28T14:31:37.687Z,98416.25
2022-10-28T14:34:39.760Z,98393.44
2022-10-28T14:37:44.408Z,98444.75
2022-10-28T14:40:45.960Z,98457.75
2022-10-28T14:43:50.165Z,98418.22
2022-10-28T14:47:10.601Z,98426.75
2022-10-28T14:50:30.962Z,98425.41
2022-10-28T14:53:33.759Z,98458.38
2022-10-28T14:56:35.334Z,98472.28
2022-10-28T14:59:37.828Z,98460.94
2022-10-28T15:02:39.471Z,98465.81
2022-10-28T15:05:41.105Z,98475.44
2022-10-28T15:08:42.653Z,98461.16
2022-10-28T15:11:45.732Z,98462.53
2022-10-28T15:14:52.178Z,98469.66
2022-10-28T15:17:53.815Z,98489.31
2022-10-28T15:21:15.603Z,98478.97
2022-10-28T15:24:17.152Z,98486.03
2022-10-28T15:27:18.693Z,98474.25
2022-10-28T15:30:24.107Z,98488.94
2022-10-28T15:33:29.927Z,98483.69
2022-10-28T15:36:31.495Z,98502.53
2022-10-28T15:39:33.254Z,98482.56
2022-10-28T15:42:39.231Z,98482.56
2022-10-28T15:45:42.703Z,98485.84
2022-10-28T15:48:44.514Z,98476.09
2022-10-28T15:51:53.675Z,98498.44
2022-10-28T15:54:56.322Z,98481.56
2022-10-28T15:57:59.016Z,98495.81
2022-10-28T16:01:00.725Z,98466.44
2022-10-28T16:04:02.408Z,98505.28
2022-10-28T16:07:07.636Z,98490.16
2022-10-28T16:10:14.385Z,98486.97
2022-10-28T16:13:19.303Z,98478.94
2022-10-28T16:16:24.842Z,98519.00
2022-10-28T16:19:29.858Z,98506.44
2022-10-28T16:22:31.551Z,98509.84
2022-10-28T16:25:33.132Z,98537.63
2022-10-28T16:28:35.429Z,98523.00
2022-10-28T16:31:37.127Z,98533.41
2022-10-28T16:34:38.792Z,98531.50
2022-10-28T16:37:44.487Z,98557.84
2022-10-28T16:40:52.087Z,98527.25
2022-10-28T16:43:55.837Z,98561.78
2022-10-28T16:46:57.588Z,98549.81
2022-10-28T16:49:59.160Z,98552.91
2022-10-28T16:53:04.322Z,98556.09
2022-10-28T16:56:09.831Z,98539.78
2022-10-28T16:59:15.645Z,98550.84
2022-10-28T17:02:17.314Z,98547.91
2022-10-28T17:05:19.971Z,98554.25
2022-10-28T17:08:36.425Z,98566.13
2022-10-28T17:11:43.275Z,98547.72
2022-10-28T17:14:44.883Z,98563.38
2022-10-28T17:17:50.921Z,98555.78
2022-10-28T17:21:02.085Z,98550.03
2022-10-28T17:24:04.197Z,98586.38
2022-10-28T17:27:07.929Z,98591.50
2022-10-28T17:30:09.947Z,98589.72
2022-10-28T17:33:11.618Z,98591.13
2022-10-28T17:36:13.190Z,98592.00
2022-10-28T17:39:18.592Z,98610.13
2022-10-28T17:42:22.452Z,98605.56
2022-10-28T17:45:24.028Z,98600.31
2022-10-28T17:48:25.585Z,98589.94
2022-10-28T17:51:27.582Z,98593.47
2022-10-28T17:54:29.147Z,98601.00
2022-10-28T17:57:30.733Z,98607.31
2022-10-28T18:00:32.367Z,98607.84
2022-10-28T18:03:38.278Z,98613.75
2022-10-28T18:06:40.224Z,98603.88
2022-10-28T18:09:42.424Z,98613.19
2022-10-28T18:12:44.109Z,98596.94
2022-10-28T18:15:45.843Z,98599.00
2022-10-28T18:18:47.667Z,98594.06
2022-10-28T18:21:49.455Z,98586.94
2022-10-28T18:24:51.060Z,98596.81
2022-10-28T18:27:52.612Z,98601.06
2022-10-28T18:30:54.199Z,98618.19
2022-10-28T18:33:56.658Z,98608.78
2022-10-28T18:36:58.272Z,98618.97
2022-10-28T18:39:59.858Z,98628.56
2022-10-28T18:43:01.475Z,98637.78
2022-10-28T18:46:03.125Z,98640.88
2022-10-28T18:49:05.512Z,98634.91
2022-10-28T18:52:07.151Z,98645.03
2022-10-28T18:55:08.914Z,98652.25
2022-10-28T18:58:14.277Z,98652.34
2022-10-28T19:01:16.740Z,98654.06
2022-10-28T19:04:18.443Z,98643.28
2022-10-28T19:07:20.704Z,98648.78
2022-10-28T19:10:22.505Z,98643.81
2022-10-28T19:13:24.339Z,98639.44
2022-10-28T19:16:26.540Z,98649.69
2022-10-28T19:19:28.178Z,98647.97
2022-10-28T19:22:29.805Z,98648.84
2022-10-28T19:25:31.457Z,98642.25
2022-10-28T19:28:39.712Z,98648.72
2022-10-28T19:31:43.783Z,98640.50
2022-10-28T19:34:45.736Z,98638.72
2022-10-28T19:37:47.371Z,98661.47
2022-10-28T19:40:48.910Z,98663.72
2022-10-28T19:43:58.464Z,98674.03
2022-10-28T19:47:00.614Z,98673.81
2022-10-28T19:50:02.334Z,98658.03
2022-10-28T19:53:03.936Z,98656.44
2022-10-28T19:56:06.006Z,98652.97
2022-10-28T19:59:07.673Z,98664.72
2022-10-28T20:02:10.401Z,98674.81
2022-10-28T20:05:12.232Z,98680.66
2022-10-28T20:08:14.366Z,98693.91
2022-10-28T20:11:20.045Z,98699.69
2022-10-28T20:14:24.748Z,98698.91
2022-10-28T20:17:26.384Z,98696.16
2022-10-28T20:20:28.012Z,98690.94
2022-10-28T20:23:29.632Z,98710.19
2022-10-28T20:26:31.852Z,98699.22
2022-10-28T20:29:33.435Z,98694.22
2022-10-28T20:32:36.408Z,98705.50
2022-10-28T20:35:38.068Z,98705.28
2022-10-28T20:38:39.668Z,98712.50
2022-10-28T20:41:41.733Z,98709.78
2022-10-28T20:44:43.433Z,98704.06
2022-10-28T20:47:45.026Z,98710.56
2022-10-28T20:51:04.514Z,98704.09
2022-10-28T20:54:06.205Z,98701.81
2022-10-28T20:57:07.820Z,98706.53
2022-10-28T21:00:09.674Z,98713.88
2022-10-28T21:03:11.554Z,98721.56
2022-10-28T21:09:20.274Z,98727.00
2022-10-28T21:12:21.847Z,98722.53
2022-10-28T21:15:23.419Z,98728.94
2022-10-28T21:18:25.072Z,98732.25
2022-10-28T21:21:27.005Z,98742.94
2022-10-28T21:24:28.584Z,98750.22
2022-10-28T21:27:30.244Z,98754.03
2022-10-28T21:30:31.997Z,98741.75
2022-10-28T21:33:34.576Z,98751.69
2022-10-28T21:36:36.297Z,98746.34
2022-10-28T21:39:39.805Z,98753.56
2022-10-28T21:42:41.438Z,98742.66
2022-10-28T21:45:42.959Z,98747.72
2022-10-28T21:48:44.686Z,98739.28
2022-10-28T21:51:46.231Z,98746.19
2022-10-28T21:54:47.753Z,98753.16
2022-10-28T21:57:49.277Z,98765.97
2022-10-28T22:00:50.917Z,98761.22
2022-10-28T22:03:54.467Z,98771.88
2022-10-28T22:06:56.037Z,98774.78
2022-10-28T22:09:57.765Z,98768.38
2022-10-28T22:12:59.282Z,98775.53
2022-10-28T22:16:01.575Z,98783.97
2022-10-28T22:19:04.267Z,98785.72
2022-10-28T22:22:05.872Z,98782.22
2022-10-28T22:25:09.519Z,98793.59
2022-10-28T22:28:12.212Z,98776.75
2022-10-28T22:31:14.900Z,98778.84
2022-10-28T22:34:16.464Z,98760.75
2022-10-28T22:37:18.650Z,98771.00
2022-10-28T22:40:20.195Z,98772.69
2022-10-28T22:43:21.719Z,98780.09
2022-10-28T22:46:23.808Z,98785.13
2022-10-28T22:49:25.340Z,98785.56
2022-10-28T22:52:26.871Z,98785.75
2022-10-28T22:55:28.404Z,98810.72
2022-10-28T22:58:30.038Z,98798.09
2022-10-28T23:01:31.817Z,98798.97
2022-10-28T23:04:33.583Z,98784.13
2022-10-28T23:07:35.186Z,98792.69
2022-10-28T23:10:36.798Z,98799.63
2022-10-28T23:16:44.953Z,98808.38
2022-10-28T23:19:46.494Z,98811.66
2022-10-28T23:22:48.072Z,98820.56
2022-10-28T23:25:53.075Z,98822.81
2022-10-28T23:28:55.647Z,98821.03
2022-10-28T23:31:57.223Z,98813.88
2022-10-28T23:34:58.851Z,98817.88
2022-10-28T23:38:00.726Z,98816.88
2022-10-28T23:41:05.381Z,98817.94
2022-10-28T23:44:06.947Z,98826.72
2022-10-28T23:47:08.636Z,98810.44
2022-10-28T23:50:11.081Z,98815.53
2022-10-28T23:53:12.756Z,98812.56
2022-10-28T23:56:14.463Z,98804.50
2022-10-28T23:59:21.086Z,98791.78
